sensor_id;sensor_type;location;lat;lon;timestamp;pressure;altitude;pressure_sealevel;temperature;humidity
10261;BME280;5175;42.606;23.388;2024-03-08T00:01:33;93763.72;;;5.82;100.00
10261;BME280;5175;42.606;23.388;2024-03-08T00:04:00;93758.38;;;5.77;100.00
10261;BME280;5175;42.606;23.388;2024-03-08T00:06:27;93758.56;;;5.70;100.00
10261;BME280;5175;42.606;23.388;2024-03-08T00:08:54;93759.75;;;5.57;100.00
10261;BME280;5175;42.606;23.388;2024-03-08T00:11:21;93756.81;;;5.54;100.00
10261;BME280;5175;42.606;23.388;2024-03-08T00:13:52;93757.34;;;5.56;100.00
10261;BME280;5175;42.606;23.388;2024-03-08T00:16:19;93751.25;;;5.55;100.00
10261;BME280;5175;42.606;23.388;2024-03-08T00:18:46;93759.13;;;5.50;100.00
10261;BME280;5175;42.606;23.388;2024-03-08T00:21:12;93749.84;;;5.48;100.00
10261;BME280;5175;42.606;23.388;2024-03-08T00:23:40;93753.34;;;5.53;100.00
10261;BME280;5175;42.606;23.388;2024-03-08T00:26:07;93754.66;;;5.51;100.00
10261;BME280;5175;42.606;23.388;2024-03-08T00:28:34;93747.97;;;5.70;100.00
10261;BME280;5175;42.606;23.388;2024-03-08T00:31:02;93751.38;;;5.65;100.00
10261;BME280;5175;42.606;23.388;2024-03-08T00:33:29;93744.50;;;5.43;100.00
10261;BME280;5175;42.606;23.388;2024-03-08T00:35:56;93742.72;;;5.48;100.00
10261;BME280;5175;42.606;23.388;2024-03-08T00:38:23;93737.38;;;5.43;100.00
10261;BME280;5175;42.606;23.388;2024-03-08T00:40:49;93740.19;;;5.37;100.00
10261;BME280;5175;42.606;23.388;2024-03-08T00:43:16;93737.13;;;5.45;100.00
10261;BME280;5175;42.606;23.388;2024-03-08T00:45:43;93730.34;;;5.54;100.00
10261;BME280;5175;42.606;23.388;2024-03-08T00:48:11;93723.75;;;5.56;100.00
10261;BME280;5175;42.606;23.388;2024-03-08T00:50:38;93726.94;;;5.58;100.00
10261;BME280;5175;42.606;23.388;2024-03-08T00:53:04;93719.81;;;5.59;100.00
10261;BME280;5175;42.606;23.388;2024-03-08T00:55:31;93717.41;;;5.57;100.00
10261;BME280;5175;42.606;23.388;2024-03-08T00:57:58;93715.41;;;5.43;100.00
10261;BME280;5175;42.606;23.388;2024-03-08T01:00:25;93707.75;;;5.20;100.00
10261;BME280;5175;42.606;23.388;2024-03-08T01:02:52;93710.16;;;5.21;100.00
10261;BME280;5175;42.606;23.388;2024-03-08T01:05:20;93710.94;;;5.22;100.00
10261;BME280;5175;42.606;23.388;2024-03-08T01:07:47;93706.75;;;5.26;100.00
10261;BME280;5175;42.606;23.388;2024-03-08T01:10:15;93707.91;;;5.35;100.00
10261;BME280;5175;42.606;23.388;2024-03-08T01:12:41;93703.91;;;5.32;100.00
10261;BME280;5175;42.606;23.388;2024-03-08T01:15:09;93709.91;;;5.23;100.00
10261;BME280;5175;42.606;23.388;2024-03-08T01:17:37;93696.19;;;5.26;100.00
10261;BME280;5175;42.606;23.388;2024-03-08T01:20:05;93696.78;;;5.33;100.00
10261;BME280;5175;42.606;23.388;2024-03-08T01:22:33;93692.91;;;5.40;100.00
10261;BME280;5175;42.606;23.388;2024-03-08T01:25:00;93697.31;;;5.35;100.00
10261;BME280;5175;42.606;23.388;2024-03-08T01:27:26;93695.00;;;5.38;100.00
10261;BME280;5175;42.606;23.388;2024-03-08T01:29:53;93692.19;;;5.50;100.00
10261;BME280;5175;42.606;23.388;2024-03-08T01:32:20;93689.50;;;5.45;100.00
10261;BME280;5175;42.606;23.388;2024-03-08T01:34:48;93691.47;;;5.54;100.00
10261;BME280;5175;42.606;23.388;2024-03-08T01:37:15;93693.75;;;5.46;100.00
10261;BME280;5175;42.606;23.388;2024-03-08T01:39:43;93692.94;;;5.45;100.00
10261;BME280;5175;42.606;23.388;2024-03-08T01:42:09;93687.97;;;5.49;100.00
10261;BME280;5175;42.606;23.388;2024-03-08T01:44:37;93684.41;;;5.38;100.00
10261;BME280;5175;42.606;23.388;2024-03-08T01:47:05;93695.81;;;5.39;100.00
10261;BME280;5175;42.606;23.388;2024-03-08T01:49:32;93696.94;;;5.48;100.00
10261;BME280;5175;42.606;23.388;2024-03-08T01:52:00;93688.84;;;5.33;100.00
10261;BME280;5175;42.606;23.388;2024-03-08T01:54:27;93685.53;;;5.21;100.00
10261;BME280;5175;42.606;23.388;2024-03-08T01:56:57;93693.38;;;5.37;100.00
10261;BME280;5175;42.606;23.388;2024-03-08T01:59:24;93695.81;;;5.39;100.00
10261;BME280;5175;42.606;23.388;2024-03-08T02:01:54;93679.56;;;5.30;100.00
10261;BME280;5175;42.606;23.388;2024-03-08T02:04:21;93691.06;;;5.41;100.00
10261;BME280;5175;42.606;23.388;2024-03-08T02:06:49;93683.00;;;5.31;100.00
10261;BME280;5175;42.606;23.388;2024-03-08T02:09:17;93692.84;;;5.35;100.00
10261;BME280;5175;42.606;23.388;2024-03-08T02:11:44;93686.47;;;5.10;100.00
10261;BME280;5175;42.606;23.388;2024-03-08T02:14:12;93688.56;;;5.07;100.00
10261;BME280;5175;42.606;23.388;2024-03-08T02:16:39;93696.13;;;4.99;100.00
10261;BME280;5175;42.606;23.388;2024-03-08T02:19:06;93689.13;;;5.10;100.00
10261;BME280;5175;42.606;23.388;2024-03-08T02:21:36;93689.66;;;5.12;100.00
10261;BME280;5175;42.606;23.388;2024-03-08T02:24:04;93695.31;;;5.20;100.00
10261;BME280;5175;42.606;23.388;2024-03-08T02:26:31;93700.88;;;5.19;100.00
10261;BME280;5175;42.606;23.388;2024-03-08T02:28:58;93679.50;;;5.03;100.00
10261;BME280;5175;42.606;23.388;2024-03-08T02:31:24;93695.00;;;5.17;100.00
10261;BME280;5175;42.606;23.388;2024-03-08T02:33:51;93703.50;;;5.19;100.00
10261;BME280;5175;42.606;23.388;2024-03-08T02:36:18;93700.59;;;5.20;100.00
10261;BME280;5175;42.606;23.388;2024-03-08T02:38:46;93705.91;;;5.20;100.00
10261;BME280;5175;42.606;23.388;2024-03-08T02:41:12;93704.88;;;5.21;100.00
10261;BME280;5175;42.606;23.388;2024-03-08T02:43:39;93704.88;;;5.21;100.00
10261;BME280;5175;42.606;23.388;2024-03-08T02:46:06;93695.50;;;5.14;100.00
10261;BME280;5175;42.606;23.388;2024-03-08T02:48:33;93708.28;;;5.22;100.00
10261;BME280;5175;42.606;23.388;2024-03-08T02:50:59;93671.28;;;5.00;100.00
10261;BME280;5175;42.606;23.388;2024-03-08T02:53:27;93712.59;;;5.28;100.00
10261;BME280;5175;42.606;23.388;2024-03-08T02:55:55;93717.13;;;5.32;100.00
10261;BME280;5175;42.606;23.388;2024-03-08T02:58:22;93714.53;;;5.37;100.00
10261;BME280;5175;42.606;23.388;2024-03-08T03:00:49;93711.63;;;5.34;100.00
10261;BME280;5175;42.606;23.388;2024-03-08T03:03:16;93710.88;;;5.38;100.00
10261;BME280;5175;42.606;23.388;2024-03-08T03:05:42;93694.44;;;5.36;100.00
10261;BME280;5175;42.606;23.388;2024-03-08T03:08:09;93715.41;;;5.43;100.00
10261;BME280;5175;42.606;23.388;2024-03-08T03:10:37;93713.03;;;5.41;100.00
10261;BME280;5175;42.606;23.388;2024-03-08T03:13:05;93713.03;;;5.41;100.00
10261;BME280;5175;42.606;23.388;2024-03-08T03:15:32;93708.72;;;5.35;100.00
10261;BME280;5175;42.606;23.388;2024-03-08T03:17:59;93699.31;;;5.23;100.00
10261;BME280;5175;42.606;23.388;2024-03-08T03:20:26;93713.56;;;5.22;100.00
10261;BME280;5175;42.606;23.388;2024-03-08T03:22:58;93724.22;;;5.27;100.00
10261;BME280;5175;42.606;23.388;2024-03-08T03:25:27;93722.88;;;5.02;100.00
10261;BME280;5175;42.606;23.388;2024-03-08T03:27:59;93723.06;;;5.18;100.00
10261;BME280;5175;42.606;23.388;2024-03-08T03:30:27;93720.91;;;5.15;100.00
10261;BME280;5175;42.606;23.388;2024-03-08T03:32:58;93737.44;;;5.05;100.00
10261;BME280;5175;42.606;23.388;2024-03-08T03:35:27;93714.06;;;4.97;100.00
10261;BME280;5175;42.606;23.388;2024-03-08T03:37:54;93733.06;;;4.94;100.00
10261;BME280;5175;42.606;23.388;2024-03-08T03:40:31;93731.47;;;4.93;100.00
10261;BME280;5175;42.606;23.388;2024-03-08T03:42:58;93734.34;;;4.91;100.00
10261;BME280;5175;42.606;23.388;2024-03-08T03:45:25;93734.53;;;4.85;100.00
10261;BME280;5175;42.606;23.388;2024-03-08T03:47:53;93740.41;;;4.70;100.00
10261;BME280;5175;42.606;23.388;2024-03-08T03:50:20;93742.75;;;4.88;100.00
10261;BME280;5175;42.606;23.388;2024-03-08T03:52:47;93738.69;;;4.81;100.00
10261;BME280;5175;42.606;23.388;2024-03-08T03:55:14;93740.06;;;4.83;100.00
10261;BME280;5175;42.606;23.388;2024-03-08T03:57:41;93744.47;;;4.78;100.00
10261;BME280;5175;42.606;23.388;2024-03-08T04:00:11;93737.47;;;4.67;100.00
10261;BME280;5175;42.606;23.388;2024-03-08T04:02:38;93743.63;;;4.72;100.00
10261;BME280;5175;42.606;23.388;2024-03-08T04:05:09;93750.25;;;4.75;100.00
10261;BME280;5175;42.606;23.388;2024-03-08T04:07:37;93753.75;;;4.80;100.00
10261;BME280;5175;42.606;23.388;2024-03-08T04:10:05;93755.91;;;4.83;100.00
10261;BME280;5175;42.606;23.388;2024-03-08T04:12:32;93753.91;;;4.90;100.00
10261;BME280;5175;42.606;23.388;2024-03-08T04:14:59;93746.75;;;4.91;100.00
10261;BME280;5175;42.606;23.388;2024-03-08T04:17:26;93734.63;;;4.73;100.00
10261;BME280;5175;42.606;23.388;2024-03-08T04:19:53;93758.13;;;4.70;100.00
10261;BME280;5175;42.606;23.388;2024-03-08T04:22:21;93755.88;;;4.62;100.00
10261;BME280;5175;42.606;23.388;2024-03-08T04:24:48;93751.22;;;4.52;100.00
10261;BME280;5175;42.606;23.388;2024-03-08T04:27:14;93769.97;;;4.67;100.00
10261;BME280;5175;42.606;23.388;2024-03-08T04:29:41;93765.25;;;4.69;100.00
10261;BME280;5175;42.606;23.388;2024-03-08T04:32:08;93754.59;;;4.64;100.00
10261;BME280;5175;42.606;23.388;2024-03-08T04:34:35;93774.97;;;4.85;100.00
10261;BME280;5175;42.606;23.388;2024-03-08T04:37:02;93780.34;;;4.90;100.00
10261;BME280;5175;42.606;23.388;2024-03-08T04:39:31;93774.31;;;4.95;100.00
10261;BME280;5175;42.606;23.388;2024-03-08T04:41:59;93784.16;;;4.99;100.00
10261;BME280;5175;42.606;23.388;2024-03-08T04:44:28;93783.50;;;5.09;100.00
10261;BME280;5175;42.606;23.388;2024-03-08T04:46:55;93780.66;;;4.94;100.00
10261;BME280;5175;42.606;23.388;2024-03-08T04:49:22;93782.66;;;4.87;100.00
10261;BME280;5175;42.606;23.388;2024-03-08T04:51:48;93787.47;;;4.90;100.00
10261;BME280;5175;42.606;23.388;2024-03-08T04:54:15;93793.16;;;4.82;100.00
10261;BME280;5175;42.606;23.388;2024-03-08T04:56:43;93795.63;;;4.88;100.00
10261;BME280;5175;42.606;23.388;2024-03-08T04:59:10;93795.69;;;4.93;100.00
10261;BME280;5175;42.606;23.388;2024-03-08T05:01:37;93793.94;;;4.99;100.00
10261;BME280;5175;42.606;23.388;2024-03-08T05:04:04;93807.41;;;4.97;100.00
10261;BME280;5175;42.606;23.388;2024-03-08T05:06:31;93798.94;;;4.95;100.00
10261;BME280;5175;42.606;23.388;2024-03-08T05:08:58;93797.88;;;4.96;100.00
10261;BME280;5175;42.606;23.388;2024-03-08T05:11:25;93788.41;;;5.00;100.00
10261;BME280;5175;42.606;23.388;2024-03-08T05:13:53;93802.94;;;4.98;100.00
10261;BME280;5175;42.606;23.388;2024-03-08T05:16:21;93802.59;;;4.94;100.00
10261;BME280;5175;42.606;23.388;2024-03-08T05:18:49;93808.88;;;4.72;100.00
10261;BME280;5175;42.606;23.388;2024-03-08T05:21:16;93812.81;;;4.69;100.00
10261;BME280;5175;42.606;23.388;2024-03-08T05:23:45;93819.19;;;4.73;100.00
10261;BME280;5175;42.606;23.388;2024-03-08T05:26:12;93816.88;;;4.77;100.00
10261;BME280;5175;42.606;23.388;2024-03-08T05:28:39;93818.66;;;4.71;100.00
10261;BME280;5175;42.606;23.388;2024-03-08T05:31:07;93825.38;;;4.62;100.00
10261;BME280;5175;42.606;23.388;2024-03-08T05:33:34;93826.91;;;4.58;100.00
10261;BME280;5175;42.606;23.388;2024-03-08T05:36:01;93835.16;;;4.62;100.00
10261;BME280;5175;42.606;23.388;2024-03-08T05:38:28;93811.28;;;4.40;100.00
10261;BME280;5175;42.606;23.388;2024-03-08T05:40:55;93840.81;;;4.70;100.00
10261;BME280;5175;42.606;23.388;2024-03-08T05:43:21;93844.03;;;4.72;100.00
10261;BME280;5175;42.606;23.388;2024-03-08T05:45:48;93836.88;;;4.73;100.00
10261;BME280;5175;42.606;23.388;2024-03-08T05:48:16;93840.59;;;4.72;100.00
10261;BME280;5175;42.606;23.388;2024-03-08T05:50:44;93851.31;;;4.82;100.00
10261;BME280;5175;42.606;23.388;2024-03-08T05:53:10;93853.72;;;4.83;100.00
10261;BME280;5175;42.606;23.388;2024-03-08T05:55:38;93860.91;;;4.88;100.00
10261;BME280;5175;42.606;23.388;2024-03-08T05:58:05;93853.72;;;4.83;100.00
10261;BME280;5175;42.606;23.388;2024-03-08T06:00:33;93863.56;;;4.88;100.00
10261;BME280;5175;42.606;23.388;2024-03-08T06:03:02;93855.00;;;4.81;100.00
10261;BME280;5175;42.606;23.388;2024-03-08T06:05:30;93867.66;;;4.79;100.00
10261;BME280;5175;42.606;23.388;2024-03-08T06:07:57;93859.00;;;4.83;100.00
10261;BME280;5175;42.606;23.388;2024-03-08T06:10:24;93875.41;;;4.85;100.00
10261;BME280;5175;42.606;23.388;2024-03-08T06:12:51;93881.19;;;4.82;100.00
10261;BME280;5175;42.606;23.388;2024-03-08T06:15:17;93877.81;;;4.87;100.00
10261;BME280;5175;42.606;23.388;2024-03-08T06:17:46;93879.59;;;4.81;100.00
10261;BME280;5175;42.606;23.388;2024-03-08T06:20:13;93889.34;;;4.81;100.00
10261;BME280;5175;42.606;23.388;2024-03-08T06:22:42;93885.69;;;4.82;100.00
10261;BME280;5175;42.606;23.388;2024-03-08T06:25:10;93884.13;;;4.86;100.00
10261;BME280;5175;42.606;23.388;2024-03-08T06:27:39;93886.09;;;4.90;100.00
10261;BME280;5175;42.606;23.388;2024-03-08T06:30:08;93893.44;;;4.72;100.00
10261;BME280;5175;42.606;23.388;2024-03-08T06:32:36;93891.78;;;4.82;100.00
10261;BME280;5175;42.606;23.388;2024-03-08T06:35:03;93903.53;;;4.75;100.00
10261;BME280;5175;42.606;23.388;2024-03-08T06:37:31;93899.03;;;4.75;100.00
10261;BME280;5175;42.606;23.388;2024-03-08T06:39:59;93884.94;;;4.53;100.00
10261;BME280;5175;42.606;23.388;2024-03-08T06:42:27;93900.94;;;4.63;100.00
10261;BME280;5175;42.606;23.388;2024-03-08T06:44:54;93894.66;;;4.64;100.00
10261;BME280;5175;42.606;23.388;2024-03-08T06:47:28;93900.22;;;4.68;100.00
10261;BME280;5175;42.606;23.388;2024-03-08T06:49:57;93899.28;;;4.74;100.00
10261;BME280;5175;42.606;23.388;2024-03-08T06:52:24;93903.22;;;4.71;100.00
10261;BME280;5175;42.606;23.388;2024-03-08T06:54:50;93902.00;;;4.79;100.00
10261;BME280;5175;42.606;23.388;2024-03-08T06:57:19;93903.16;;;4.55;100.00
10261;BME280;5175;42.606;23.388;2024-03-08T06:59:47;93905.84;;;4.71;100.00
10261;BME280;5175;42.606;23.388;2024-03-08T07:02:14;93912.84;;;4.77;100.00
10261;BME280;5175;42.606;23.388;2024-03-08T07:04:41;93904.25;;;4.87;100.00
10261;BME280;5175;42.606;23.388;2024-03-08T07:07:07;93912.53;;;4.90;100.00
10261;BME280;5175;42.606;23.388;2024-03-08T07:09:35;93914.03;;;4.86;100.00
10261;BME280;5175;42.606;23.388;2024-03-08T07:12:02;93916.81;;;4.96;100.00
10261;BME280;5175;42.606;23.388;2024-03-08T07:14:30;93913.88;;;5.10;100.00
10261;BME280;5175;42.606;23.388;2024-03-08T07:16:57;93912.50;;;5.07;100.00
10261;BME280;5175;42.606;23.388;2024-03-08T07:19:24;93916.19;;;5.06;100.00
10261;BME280;5175;42.606;23.388;2024-03-08T07:21:50;93920.19;;;4.75;100.00
10261;BME280;5175;42.606;23.388;2024-03-08T07:24:17;93921.47;;;5.06;100.00
10261;BME280;5175;42.606;23.388;2024-03-08T07:27:04;93916.50;;;5.26;100.00
10261;BME280;5175;42.606;23.388;2024-03-08T07:29:33;93900.25;;;4.84;100.00
10261;BME280;5175;42.606;23.388;2024-03-08T07:32:00;93916.75;;;5.08;100.00
10261;BME280;5175;42.606;23.388;2024-03-08T07:34:38;93920.84;;;5.16;100.00
10261;BME280;5175;42.606;23.388;2024-03-08T07:37:05;93917.78;;;5.24;100.00
10261;BME280;5175;42.606;23.388;2024-03-08T07:39:37;93920.59;;;5.34;100.00
10261;BME280;5175;42.606;23.388;2024-03-08T07:42:04;93921.00;;;5.26;100.00
10261;BME280;5175;42.606;23.388;2024-03-08T07:44:31;93930.59;;;5.32;100.00
10261;BME280;5175;42.606;23.388;2024-03-08T07:47:00;93916.94;;;5.40;100.00
10261;BME280;5175;42.606;23.388;2024-03-08T07:49:26;93916.47;;;5.43;100.00
10261;BME280;5175;42.606;23.388;2024-03-08T07:51:53;93922.38;;;5.50;100.00
10261;BME280;5175;42.606;23.388;2024-03-08T07:54:20;93929.56;;;5.71;100.00
10261;BME280;5175;42.606;23.388;2024-03-08T07:56:46;93929.44;;;5.61;100.00
10261;BME280;5175;42.606;23.388;2024-03-08T07:59:13;93924.63;;;5.58;100.00
10261;BME280;5175;42.606;23.388;2024-03-08T08:01:40;93921.13;;;5.74;100.00
10261;BME280;5175;42.606;23.388;2024-03-08T08:04:08;93928.03;;;5.75;100.00
10261;BME280;5175;42.606;23.388;2024-03-08T08:06:38;93911.78;;;5.66;100.00
10261;BME280;5175;42.606;23.388;2024-03-08T08:09:06;93924.75;;;5.68;100.00
10261;BME280;5175;42.606;23.388;2024-03-08T08:11:39;93928.28;;;5.74;100.00
10261;BME280;5175;42.606;23.388;2024-03-08T08:14:06;93926.25;;;5.81;100.00
10261;BME280;5175;42.606;23.388;2024-03-08T08:16:34;93928.41;;;5.84;100.00
10261;BME280;5175;42.606;23.388;2024-03-08T08:19:02;93910.13;;;5.82;100.00
10261;BME280;5175;42.606;23.388;2024-03-08T08:21:34;93917.66;;;6.12;100.00
10261;BME280;5175;42.606;23.388;2024-03-08T08:24:02;93926.16;;;6.14;100.00
10261;BME280;5175;42.606;23.388;2024-03-08T08:26:29;93915.81;;;6.34;100.00
10261;BME280;5175;42.606;23.388;2024-03-08T08:28:56;93923.34;;;6.47;100.00
10261;BME280;5175;42.606;23.388;2024-03-08T08:31:23;93919.91;;;6.47;100.00
10261;BME280;5175;42.606;23.388;2024-03-08T08:33:49;93925.25;;;6.52;100.00
10261;BME280;5175;42.606;23.388;2024-03-08T08:36:19;93926.94;;;6.63;100.00
10261;BME280;5175;42.606;23.388;2024-03-08T08:38:47;93925.69;;;6.70;100.00
10261;BME280;5175;42.606;23.388;2024-03-08T08:41:14;93921.50;;;6.74;100.00
10261;BME280;5175;42.606;23.388;2024-03-08T08:43:42;93919.25;;;6.88;100.00
10261;BME280;5175;42.606;23.388;2024-03-08T08:46:10;93919.41;;;6.76;100.00
10261;BME280;5175;42.606;23.388;2024-03-08T08:48:38;93918.13;;;6.84;100.00
10261;BME280;5175;42.606;23.388;2024-03-08T08:51:06;93910.34;;;7.04;100.00
10261;BME280;5175;42.606;23.388;2024-03-08T08:53:33;93874.28;;;6.71;100.00
10261;BME280;5175;42.606;23.388;2024-03-08T08:56:02;93910.78;;;6.91;100.00
10261;BME280;5175;42.606;23.388;2024-03-08T08:58:29;93920.16;;;7.04;100.00
10261;BME280;5175;42.606;23.388;2024-03-08T09:00:55;93912.69;;;6.96;100.00
10261;BME280;5175;42.606;23.388;2024-03-08T09:03:22;93913.53;;;7.06;100.00
10261;BME280;5175;42.606;23.388;2024-03-08T09:05:49;93921.66;;;7.21;100.00
10261;BME280;5175;42.606;23.388;2024-03-08T09:08:16;93919.16;;;7.10;100.00
10261;BME280;5175;42.606;23.388;2024-03-08T09:10:43;93919.91;;;7.37;100.00
10261;BME280;5175;42.606;23.388;2024-03-08T09:13:12;93916.69;;;7.35;100.00
10261;BME280;5175;42.606;23.388;2024-03-08T09:15:39;93919.50;;;7.60;100.00
10261;BME280;5175;42.606;23.388;2024-03-08T09:18:07;93920.09;;;7.67;100.00
10261;BME280;5175;42.606;23.388;2024-03-08T09:20:34;93922.53;;;7.79;100.00
10261;BME280;5175;42.606;23.388;2024-03-08T09:23:02;93922.56;;;7.84;100.00
10261;BME280;5175;42.606;23.388;2024-03-08T09:25:29;93921.81;;;7.88;100.00
10261;BME280;5175;42.606;23.388;2024-03-08T09:27:56;93921.84;;;7.93;100.00
10261;BME280;5175;42.606;23.388;2024-03-08T09:30:24;93924.47;;;7.88;100.00
10261;BME280;5175;42.606;23.388;2024-03-08T09:32:51;93921.94;;;7.67;100.00
10261;BME280;5175;42.606;23.388;2024-03-08T09:35:17;93917.06;;;7.95;100.00
10261;BME280;5175;42.606;23.388;2024-03-08T09:37:45;93923.06;;;7.76;100.00
10261;BME280;5175;42.606;23.388;2024-03-08T09:40:13;93917.63;;;7.55;100.00
10261;BME280;5175;42.606;23.388;2024-03-08T09:42:40;93915.84;;;7.66;100.00
10261;BME280;5175;42.606;23.388;2024-03-08T09:45:09;93911.25;;;8.03;100.00
10261;BME280;5175;42.606;23.388;2024-03-08T09:47:39;93919.50;;;8.07;100.00
10261;BME280;5175;42.606;23.388;2024-03-08T09:50:08;93928.19;;;7.92;100.00
10261;BME280;5175;42.606;23.388;2024-03-08T09:52:36;93921.34;;;8.06;100.00
10261;BME280;5175;42.606;23.388;2024-03-08T09:55:04;93921.03;;;7.93;100.00
10261;BME280;5175;42.606;23.388;2024-03-08T09:57:32;93921.44;;;8.22;100.00
10261;BME280;5175;42.606;23.388;2024-03-08T09:59:59;93930.06;;;7.92;100.00
10261;BME280;5175;42.606;23.388;2024-03-08T10:02:26;93929.91;;;8.13;100.00
10261;BME280;5175;42.606;23.388;2024-03-08T10:04:54;93928.81;;;8.14;100.00
10261;BME280;5175;42.606;23.388;2024-03-08T10:07:20;93920.03;;;8.14;100.00
10261;BME280;5175;42.606;23.388;2024-03-08T10:09:47;93927.59;;;8.37;100.00
10261;BME280;5175;42.606;23.388;2024-03-08T10:12:15;93930.13;;;8.94;100.00
10261;BME280;5175;42.606;23.388;2024-03-08T10:14:43;93930.72;;;9.06;100.00
10261;BME280;5175;42.606;23.388;2024-03-08T10:17:09;93927.75;;;9.03;100.00
10261;BME280;5175;42.606;23.388;2024-03-08T10:19:36;93935.75;;;8.93;100.00
10261;BME280;5175;42.606;23.388;2024-03-08T10:22:05;93928.78;;;8.76;96.02
10261;BME280;5175;42.606;23.388;2024-03-08T10:24:33;93936.78;;;8.97;90.97
10261;BME280;5175;42.606;23.388;2024-03-08T10:27:00;93910.94;;;8.67;91.17
10261;BME280;5175;42.606;23.388;2024-03-08T10:29:30;93925.09;;;8.98;93.35
10261;BME280;5175;42.606;23.388;2024-03-08T10:31:57;93926.41;;;8.80;95.40
10261;BME280;5175;42.606;23.388;2024-03-08T10:34:25;93910.13;;;8.61;96.79
10261;BME280;5175;42.606;23.388;2024-03-08T10:36:51;93924.75;;;8.59;94.32
10261;BME280;5175;42.606;23.388;2024-03-08T10:39:23;93927.75;;;8.82;95.43
10261;BME280;5175;42.606;23.388;2024-03-08T10:41:53;93926.66;;;8.73;95.68
10261;BME280;5175;42.606;23.388;2024-03-08T10:44:40;93915.25;;;8.83;90.33
10261;BME280;5175;42.606;23.388;2024-03-08T10:47:17;93919.47;;;8.79;89.46
10261;BME280;5175;42.606;23.388;2024-03-08T10:49:51;93911.00;;;8.97;93.48
10261;BME280;5175;42.606;23.388;2024-03-08T10:52:21;93912.59;;;9.13;93.15
10261;BME280;5175;42.606;23.388;2024-03-08T10:54:51;93908.09;;;9.04;91.76
10261;BME280;5175;42.606;23.388;2024-03-08T10:57:19;93909.66;;;9.05;92.33
10261;BME280;5175;42.606;23.388;2024-03-08T10:59:49;93908.09;;;9.14;96.50
10261;BME280;5175;42.606;23.388;2024-03-08T11:02:18;93902.47;;;9.20;93.30
10261;BME280;5175;42.606;23.388;2024-03-08T11:04:46;93894.25;;;9.27;92.24
10261;BME280;5175;42.606;23.388;2024-03-08T11:07:14;93902.75;;;9.49;89.10
10261;BME280;5175;42.606;23.388;2024-03-08T11:09:42;93898.50;;;9.08;90.28
10261;BME280;5175;42.606;23.388;2024-03-08T11:12:26;93892.38;;;9.12;97.25
10261;BME280;5175;42.606;23.388;2024-03-08T11:14:55;93893.44;;;9.41;89.02
10261;BME280;5175;42.606;23.388;2024-03-08T11:17:39;93880.88;;;9.62;92.04
10261;BME280;5175;42.606;23.388;2024-03-08T11:20:11;93889.81;;;10.06;84.46
10261;BME280;5175;42.606;23.388;2024-03-08T11:22:42;93891.41;;;10.02;82.40
10261;BME280;5175;42.606;23.388;2024-03-08T11:25:32;93895.44;;;10.00;78.34
10261;BME280;5175;42.606;23.388;2024-03-08T11:28:13;93890.44;;;9.68;77.94
10261;BME280;5175;42.606;23.388;2024-03-08T11:30:45;93883.00;;;9.70;80.08
10261;BME280;5175;42.606;23.388;2024-03-08T11:33:14;93889.41;;;9.54;81.46
10261;BME280;5175;42.606;23.388;2024-03-08T11:35:42;93886.16;;;9.82;82.25
10261;BME280;5175;42.606;23.388;2024-03-08T11:38:12;93870.75;;;9.64;81.75
10261;BME280;5175;42.606;23.388;2024-03-08T11:40:39;93862.34;;;10.06;87.30
10261;BME280;5175;42.606;23.388;2024-03-08T11:43:07;93869.44;;;10.36;85.20
10261;BME280;5175;42.606;23.388;2024-03-08T11:45:36;93862.31;;;10.21;79.74
10261;BME280;5175;42.606;23.388;2024-03-08T11:48:03;93877.81;;;9.99;79.47
10261;BME280;5175;42.606;23.388;2024-03-08T11:50:30;93874.69;;;9.82;81.54
10261;BME280;5175;42.606;23.388;2024-03-08T11:53:02;93877.16;;;9.53;80.44
10261;BME280;5175;42.606;23.388;2024-03-08T11:55:29;93877.16;;;9.43;82.44
10261;BME280;5175;42.606;23.388;2024-03-08T11:58:03;93876.34;;;9.68;80.53
10261;BME280;5175;42.606;23.388;2024-03-08T12:00:32;93878.47;;;9.61;79.27
10261;BME280;5175;42.606;23.388;2024-03-08T12:03:06;93877.94;;;9.64;78.96
10261;BME280;5175;42.606;23.388;2024-03-08T12:05:33;93878.72;;;9.69;78.43
10261;BME280;5175;42.606;23.388;2024-03-08T12:08:01;93880.22;;;10.16;79.37
10261;BME280;5175;42.606;23.388;2024-03-08T12:10:28;93873.44;;;10.38;76.89
10261;BME280;5175;42.606;23.388;2024-03-08T12:12:57;93859.97;;;10.58;78.43
10261;BME280;5175;42.606;23.388;2024-03-08T12:15:25;93878.66;;;9.94;72.43
10261;BME280;5175;42.606;23.388;2024-03-08T12:17:54;93866.50;;;9.53;74.51
10261;BME280;5175;42.606;23.388;2024-03-08T12:20:24;93867.28;;;9.59;75.24
10261;BME280;5175;42.606;23.388;2024-03-08T12:22:52;93864.66;;;9.38;75.31
10261;BME280;5175;42.606;23.388;2024-03-08T12:25:22;93871.34;;;9.31;77.33
10261;BME280;5175;42.606;23.388;2024-03-08T12:27:52;93869.47;;;8.91;77.17
10261;BME280;5175;42.606;23.388;2024-03-08T12:30:22;93855.09;;;8.72;79.19
10261;BME280;5175;42.606;23.388;2024-03-08T12:32:54;93860.66;;;8.65;80.89
10261;BME280;5175;42.606;23.388;2024-03-08T12:35:24;93848.19;;;8.86;85.73
10261;BME280;5175;42.606;23.388;2024-03-08T12:37:52;93851.41;;;8.78;83.99
10261;BME280;5175;42.606;23.388;2024-03-08T12:40:25;93829.56;;;8.91;86.20
10261;BME280;5175;42.606;23.388;2024-03-08T12:42:53;93849.50;;;8.94;83.13
10261;BME280;5175;42.606;23.388;2024-03-08T12:45:20;93849.53;;;9.04;82.44
10261;BME280;5175;42.606;23.388;2024-03-08T12:47:49;93852.19;;;9.04;82.34
10261;BME280;5175;42.606;23.388;2024-03-08T12:50:16;93831.69;;;8.99;82.19
10261;BME280;5175;42.606;23.388;2024-03-08T12:52:45;93844.72;;;9.26;83.36
10261;BME280;5175;42.606;23.388;2024-03-08T12:55:11;93841.22;;;9.40;81.79
10261;BME280;5175;42.606;23.388;2024-03-08T12:57:39;93845.25;;;9.28;81.56
10261;BME280;5175;42.606;23.388;2024-03-08T13:00:06;93845.25;;;9.23;84.05
10261;BME280;5175;42.606;23.388;2024-03-08T13:02:38;93840.69;;;9.43;82.84
10261;BME280;5175;42.606;23.388;2024-03-08T13:05:06;93840.16;;;9.47;82.87
10261;BME280;5175;42.606;23.388;2024-03-08T13:07:35;93824.19;;;9.47;81.22